sensor_id;sensor_type;location;lat;lon;timestamp;temperature;humidity
61896;DHT22;47835;52.778;5.956;2023-09-19T00:00:46;13.80;99.90
61896;DHT22;47835;52.778;5.956;2023-09-19T00:03:15;13.80;99.90
61896;DHT22;47835;52.778;5.956;2023-09-19T00:05:40;13.80;99.90
61896;DHT22;47835;52.778;5.956;2023-09-19T00:08:10;13.90;99.90
61896;DHT22;47835;52.778;5.956;2023-09-19T00:10:36;13.90;99.90
61896;DHT22;47835;52.778;5.956;2023-09-19T00:13:03;14.00;99.90
61896;DHT22;47835;52.778;5.956;2023-09-19T00:15:38;14.00;99.90
61896;DHT22;47835;52.778;5.956;2023-09-19T00:18:05;14.00;99.90
61896;DHT22;47835;52.778;5.956;2023-09-19T00:20:32;13.90;99.90
61896;DHT22;47835;52.778;5.956;2023-09-19T00:23:00;13.90;99.90
61896;DHT22;47835;52.778;5.956;2023-09-19T00:25:31;14.00;99.90
61896;DHT22;47835;52.778;5.956;2023-09-19T00:27:57;13.90;99.90
61896;DHT22;47835;52.778;5.956;2023-09-19T00:30:23;13.90;99.90
61896;DHT22;47835;52.778;5.956;2023-09-19T00:32:50;13.80;99.90
61896;DHT22;47835;52.778;5.956;2023-09-19T00:35:23;13.80;99.90
61896;DHT22;47835;52.778;5.956;2023-09-19T00:37:49;13.80;99.90
61896;DHT22;47835;52.778;5.956;2023-09-19T00:40:15;13.70;99.90
61896;DHT22;47835;52.778;5.956;2023-09-19T00:42:43;13.70;99.90
61896;DHT22;47835;52.778;5.956;2023-09-19T00:45:10;13.70;99.90
61896;DHT22;47835;52.778;5.956;2023-09-19T00:47:45;13.70;99.90
61896;DHT22;47835;52.778;5.956;2023-09-19T00:50:16;13.70;99.90
61896;DHT22;47835;52.778;5.956;2023-09-19T00:52:43;13.60;99.90
61896;DHT22;47835;52.778;5.956;2023-09-19T00:55:11;13.60;99.90
61896;DHT22;47835;52.778;5.956;2023-09-19T00:57:38;13.70;99.90
61896;DHT22;47835;52.778;5.956;2023-09-19T01:00:06;13.70;99.90
61896;DHT22;47835;52.778;5.956;2023-09-19T01:02:34;13.70;99.90
61896;DHT22;47835;52.778;5.956;2023-09-19T01:05:00;13.70;99.90
61896;DHT22;47835;52.778;5.956;2023-09-19T01:07:27;13.70;99.90
61896;DHT22;47835;52.778;5.956;2023-09-19T01:09:58;13.70;99.90
61896;DHT22;47835;52.778;5.956;2023-09-19T01:12:36;13.60;99.90
61896;DHT22;47835;52.778;5.956;2023-09-19T01:15:32;13.60;99.90
61896;DHT22;47835;52.778;5.956;2023-09-19T01:26:18;13.60;99.90
61896;DHT22;47835;52.778;5.956;2023-09-19T01:32:03;13.50;99.90
61896;DHT22;47835;52.778;5.956;2023-09-19T01:34:50;13.60;99.90
61896;DHT22;47835;52.778;5.956;2023-09-19T01:37:21;13.60;99.90
61896;DHT22;47835;52.778;5.956;2023-09-19T01:39:55;13.60;99.90
61896;DHT22;47835;52.778;5.956;2023-09-19T01:42:28;13.70;99.90
61896;DHT22;47835;52.778;5.956;2023-09-19T01:45:09;13.70;99.90
61896;DHT22;47835;52.778;5.956;2023-09-19T01:47:46;13.60;99.90
61896;DHT22;47835;52.778;5.956;2023-09-19T01:50:32;13.50;99.90
61896;DHT22;47835;52.778;5.956;2023-09-19T01:53:10;13.40;99.90
61896;DHT22;47835;52.778;5.956;2023-09-19T01:55:43;13.30;99.90
61896;DHT22;47835;52.778;5.956;2023-09-19T01:58:17;13.30;99.90
61896;DHT22;47835;52.778;5.956;2023-09-19T02:00:46;13.30;99.90
61896;DHT22;47835;52.778;5.956;2023-09-19T02:03:13;13.20;99.90
61896;DHT22;47835;52.778;5.956;2023-09-19T02:05:40;13.30;99.90
61896;DHT22;47835;52.778;5.956;2023-09-19T02:08:05;13.20;99.90
61896;DHT22;47835;52.778;5.956;2023-09-19T02:10:31;13.30;99.90
61896;DHT22;47835;52.778;5.956;2023-09-19T02:12:57;13.30;99.90
61896;DHT22;47835;52.778;5.956;2023-09-19T02:15:23;13.30;99.90
61896;DHT22;47835;52.778;5.956;2023-09-19T02:17:48;13.30;99.90
61896;DHT22;47835;52.778;5.956;2023-09-19T02:20:14;13.30;99.90
61896;DHT22;47835;52.778;5.956;2023-09-19T02:22:41;13.20;99.90
61896;DHT22;47835;52.778;5.956;2023-09-19T02:25:07;13.20;99.90
61896;DHT22;47835;52.778;5.956;2023-09-19T02:27:34;13.20;99.90
61896;DHT22;47835;52.778;5.956;2023-09-19T02:29:59;13.20;99.90
61896;DHT22;47835;52.778;5.956;2023-09-19T02:32:29;13.20;99.90
61896;DHT22;47835;52.778;5.956;2023-09-19T02:34:57;13.20;99.90
61896;DHT22;47835;52.778;5.956;2023-09-19T02:37:23;13.20;99.90
61896;DHT22;47835;52.778;5.956;2023-09-19T02:39:49;13.30;99.90
61896;DHT22;47835;52.778;5.956;2023-09-19T02:42:14;13.30;99.90
61896;DHT22;47835;52.778;5.956;2023-09-19T02:44:40;13.30;99.90
61896;DHT22;47835;52.778;5.956;2023-09-19T02:47:05;13.20;99.90
61896;DHT22;47835;52.778;5.956;2023-09-19T02:49:31;13.30;99.90
61896;DHT22;47835;52.778;5.956;2023-09-19T02:51:57;13.30;99.90
61896;DHT22;47835;52.778;5.956;2023-09-19T02:54:24;13.30;99.90
61896;DHT22;47835;52.778;5.956;2023-09-19T02:56:49;13.30;99.90
61896;DHT22;47835;52.778;5.956;2023-09-19T02:59:15;13.40;99.90
61896;DHT22;47835;52.778;5.956;2023-09-19T03:01:43;13.30;99.90
61896;DHT22;47835;52.778;5.956;2023-09-19T03:04:09;13.40;99.90
61896;DHT22;47835;52.778;5.956;2023-09-19T03:06:37;13.40;99.90
61896;DHT22;47835;52.778;5.956;2023-09-19T03:09:03;13.40;99.90
61896;DHT22;47835;52.778;5.956;2023-09-19T03:11:31;13.40;99.90
61896;DHT22;47835;52.778;5.956;2023-09-19T03:13:57;13.40;99.90
61896;DHT22;47835;52.778;5.956;2023-09-19T03:16:23;13.40;99.90
61896;DHT22;47835;52.778;5.956;2023-09-19T03:18:50;13.40;99.90
61896;DHT22;47835;52.778;5.956;2023-09-19T03:21:16;13.50;99.90
61896;DHT22;47835;52.778;5.956;2023-09-19T03:23:43;13.50;99.90
61896;DHT22;47835;52.778;5.956;2023-09-19T03:26:11;13.50;99.90
61896;DHT22;47835;52.778;5.956;2023-09-19T03:28:38;13.50;99.90
61896;DHT22;47835;52.778;5.956;2023-09-19T03:31:05;13.50;99.90
61896;DHT22;47835;52.778;5.956;2023-09-19T03:33:31;13.50;99.90
61896;DHT22;47835;52.778;5.956;2023-09-19T03:35:58;13.50;99.90
61896;DHT22;47835;52.778;5.956;2023-09-19T03:38:25;13.50;99.90
61896;DHT22;47835;52.778;5.956;2023-09-19T03:40:51;13.50;99.90
61896;DHT22;47835;52.778;5.956;2023-09-19T03:43:17;13.50;99.90
61896;DHT22;47835;52.778;5.956;2023-09-19T03:45:42;13.50;99.90
61896;DHT22;47835;52.778;5.956;2023-09-19T03:48:12;13.60;99.90
61896;DHT22;47835;52.778;5.956;2023-09-19T03:50:38;13.60;99.90
61896;DHT22;47835;52.778;5.956;2023-09-19T03:53:04;13.60;99.90
61896;DHT22;47835;52.778;5.956;2023-09-19T03:55:29;13.60;99.90
61896;DHT22;47835;52.778;5.956;2023-09-19T03:57:58;13.60;99.90
61896;DHT22;47835;52.778;5.956;2023-09-19T04:00:23;13.60;99.90
61896;DHT22;47835;52.778;5.956;2023-09-19T04:02:52;13.60;99.90
61896;DHT22;47835;52.778;5.956;2023-09-19T04:05:18;13.60;99.90
61896;DHT22;47835;52.778;5.956;2023-09-19T04:07:44;13.70;99.90
61896;DHT22;47835;52.778;5.956;2023-09-19T04:10:10;13.70;99.90
61896;DHT22;47835;52.778;5.956;2023-09-19T04:12:37;13.70;99.90
61896;DHT22;47835;52.778;5.956;2023-09-19T04:15:03;13.70;99.90
61896;DHT22;47835;52.778;5.956;2023-09-19T04:17:28;13.60;99.90
61896;DHT22;47835;52.778;5.956;2023-09-19T04:19:54;13.70;99.90
61896;DHT22;47835;52.778;5.956;2023-09-19T04:22:20;13.70;99.90
61896;DHT22;47835;52.778;5.956;2023-09-19T04:24:45;13.70;99.90
61896;DHT22;47835;52.778;5.956;2023-09-19T04:27:11;13.90;99.90
61896;DHT22;47835;52.778;5.956;2023-09-19T04:29:39;13.70;99.90
61896;DHT22;47835;52.778;5.956;2023-09-19T04:32:07;13.70;99.90
61896;DHT22;47835;52.778;5.956;2023-09-19T04:34:33;13.80;99.90
61896;DHT22;47835;52.778;5.956;2023-09-19T04:37:00;13.80;99.90
61896;DHT22;47835;52.778;5.956;2023-09-19T04:39:26;13.70;99.90
61896;DHT22;47835;52.778;5.956;2023-09-19T04:41:53;13.70;99.90
61896;DHT22;47835;52.778;5.956;2023-09-19T04:44:18;13.60;99.90
61896;DHT22;47835;52.778;5.956;2023-09-19T04:46:44;13.60;99.90
61896;DHT22;47835;52.778;5.956;2023-09-19T04:49:12;13.60;99.90
61896;DHT22;47835;52.778;5.956;2023-09-19T04:51:38;13.60;99.90
61896;DHT22;47835;52.778;5.956;2023-09-19T04:54:04;13.60;99.90
61896;DHT22;47835;52.778;5.956;2023-09-19T04:56:29;13.60;99.90
61896;DHT22;47835;52.778;5.956;2023-09-19T04:58:56;13.60;99.90
61896;DHT22;47835;52.778;5.956;2023-09-19T05:01:22;13.60;99.90
61896;DHT22;47835;52.778;5.956;2023-09-19T05:03:48;13.60;99.90
61896;DHT22;47835;52.778;5.956;2023-09-19T05:06:21;13.60;99.90
61896;DHT22;47835;52.778;5.956;2023-09-19T05:08:47;13.60;99.90
61896;DHT22;47835;52.778;5.956;2023-09-19T05:11:20;13.60;99.90
61896;DHT22;47835;52.778;5.956;2023-09-19T05:13:47;13.60;99.90
61896;DHT22;47835;52.778;5.956;2023-09-19T05:16:13;13.60;99.90
61896;DHT22;47835;52.778;5.956;2023-09-19T05:18:38;13.60;99.90
61896;DHT22;47835;52.778;5.956;2023-09-19T05:21:05;13.60;99.90
61896;DHT22;47835;52.778;5.956;2023-09-19T05:23:30;13.60;99.90
61896;DHT22;47835;52.778;5.956;2023-09-19T05:25:56;13.60;99.90
61896;DHT22;47835;52.778;5.956;2023-09-19T05:28:23;13.50;99.90
61896;DHT22;47835;52.778;5.956;2023-09-19T05:30:49;13.50;99.90
61896;DHT22;47835;52.778;5.956;2023-09-19T05:33:15;13.60;99.90
61896;DHT22;47835;52.778;5.956;2023-09-19T05:35:41;13.60;99.90
61896;DHT22;47835;52.778;5.956;2023-09-19T05:38:07;13.50;99.90
61896;DHT22;47835;52.778;5.956;2023-09-19T05:40:37;13.60;99.90
61896;DHT22;47835;52.778;5.956;2023-09-19T05:43:04;13.60;99.90
61896;DHT22;47835;52.778;5.956;2023-09-19T05:45:31;13.60;99.90
61896;DHT22;47835;52.778;5.956;2023-09-19T05:48:16;13.50;99.90
61896;DHT22;47835;52.778;5.956;2023-09-19T05:50:42;13.50;99.90
61896;DHT22;47835;52.778;5.956;2023-09-19T05:53:08;13.50;99.90
61896;DHT22;47835;52.778;5.956;2023-09-19T05:55:40;13.60;99.90
61896;DHT22;47835;52.778;5.956;2023-09-19T05:58:08;13.60;99.90
61896;DHT22;47835;52.778;5.956;2023-09-19T06:00:35;13.60;99.90
61896;DHT22;47835;52.778;5.956;2023-09-19T06:03:02;13.60;99.90
61896;DHT22;47835;52.778;5.956;2023-09-19T06:05:28;13.70;99.90
61896;DHT22;47835;52.778;5.956;2023-09-19T06:07:56;13.80;99.90
61896;DHT22;47835;52.778;5.956;2023-09-19T06:10:25;13.80;99.90
61896;DHT22;47835;52.778;5.956;2023-09-19T06:12:51;13.80;99.90
61896;DHT22;47835;52.778;5.956;2023-09-19T06:15:17;13.80;99.90
61896;DHT22;47835;52.778;5.956;2023-09-19T06:17:54;13.80;99.90
61896;DHT22;47835;52.778;5.956;2023-09-19T06:20:21;13.80;99.90
61896;DHT22;47835;52.778;5.956;2023-09-19T06:22:49;13.80;99.90
61896;DHT22;47835;52.778;5.956;2023-09-19T06:25:16;13.80;99.90
61896;DHT22;47835;52.778;5.956;2023-09-19T06:27:52;13.80;99.90
61896;DHT22;47835;52.778;5.956;2023-09-19T06:30:21;13.70;99.90
61896;DHT22;47835;52.778;5.956;2023-09-19T06:32:48;13.80;99.90
61896;DHT22;47835;52.778;5.956;2023-09-19T06:35:15;13.80;99.90
61896;DHT22;47835;52.778;5.956;2023-09-19T06:37:42;13.80;99.90
61896;DHT22;47835;52.778;5.956;2023-09-19T06:40:08;13.80;99.90
61896;DHT22;47835;52.778;5.956;2023-09-19T06:45:08;13.80;99.90
61896;DHT22;47835;52.778;5.956;2023-09-19T06:47:37;13.80;99.90
61896;DHT22;47835;52.778;5.956;2023-09-19T06:50:02;13.80;99.90
61896;DHT22;47835;52.778;5.956;2023-09-19T06:52:30;13.90;99.90
61896;DHT22;47835;52.778;5.956;2023-09-19T06:54:55;13.80;99.90
61896;DHT22;47835;52.778;5.956;2023-09-19T06:57:21;13.80;99.90
61896;DHT22;47835;52.778;5.956;2023-09-19T06:59:47;13.80;99.90
61896;DHT22;47835;52.778;5.956;2023-09-19T07:02:13;13.80;99.90
61896;DHT22;47835;52.778;5.956;2023-09-19T07:04:39;13.80;99.90
61896;DHT22;47835;52.778;5.956;2023-09-19T07:07:05;13.80;99.90
61896;DHT22;47835;52.778;5.956;2023-09-19T07:09:30;13.80;99.90
61896;DHT22;47835;52.778;5.956;2023-09-19T07:11:57;13.80;99.90
61896;DHT22;47835;52.778;5.956;2023-09-19T07:14:22;13.80;99.90
61896;DHT22;47835;52.778;5.956;2023-09-19T07:16:48;13.70;99.90
61896;DHT22;47835;52.778;5.956;2023-09-19T07:19:15;13.70;99.90
61896;DHT22;47835;52.778;5.956;2023-09-19T07:21:40;13.70;99.90
61896;DHT22;47835;52.778;5.956;2023-09-19T07:24:10;13.70;99.90
61896;DHT22;47835;52.778;5.956;2023-09-19T07:26:35;13.80;99.90
61896;DHT22;47835;52.778;5.956;2023-09-19T07:29:01;13.80;99.90
61896;DHT22;47835;52.778;5.956;2023-09-19T07:31:29;13.80;99.90
61896;DHT22;47835;52.778;5.956;2023-09-19T07:33:56;13.90;99.90
61896;DHT22;47835;52.778;5.956;2023-09-19T07:36:21;13.90;99.90
61896;DHT22;47835;52.778;5.956;2023-09-19T07:38:49;14.00;99.90
61896;DHT22;47835;52.778;5.956;2023-09-19T07:41:15;14.00;99.90
61896;DHT22;47835;52.778;5.956;2023-09-19T07:43:41;14.00;99.90
61896;DHT22;47835;52.778;5.956;2023-09-19T07:46:07;14.10;99.90
61896;DHT22;47835;52.778;5.956;2023-09-19T07:48:34;14.10;99.90
61896;DHT22;47835;52.778;5.956;2023-09-19T07:51:03;14.20;99.90
61896;DHT22;47835;52.778;5.956;2023-09-19T07:53:29;14.30;99.90
61896;DHT22;47835;52.778;5.956;2023-09-19T07:56:05;14.30;99.90
61896;DHT22;47835;52.778;5.956;2023-09-19T07:58:31;14.40;99.90
61896;DHT22;47835;52.778;5.956;2023-09-19T08:01:01;14.50;99.90
61896;DHT22;47835;52.778;5.956;2023-09-19T08:03:27;14.70;99.90
61896;DHT22;47835;52.778;5.956;2023-09-19T08:05:53;14.80;99.90
61896;DHT22;47835;52.778;5.956;2023-09-19T08:08:18;14.80;99.90
61896;DHT22;47835;52.778;5.956;2023-09-19T08:10:44;14.90;99.90
61896;DHT22;47835;52.778;5.956;2023-09-19T08:13:11;15.00;99.90
61896;DHT22;47835;52.778;5.956;2023-09-19T08:15:43;15.10;99.90
61896;DHT22;47835;52.778;5.956;2023-09-19T08:18:10;15.20;99.90
61896;DHT22;47835;52.778;5.956;2023-09-19T08:20:38;15.30;99.90
61896;DHT22;47835;52.778;5.956;2023-09-19T08:23:04;15.30;99.90
61896;DHT22;47835;52.778;5.956;2023-09-19T08:25:29;15.40;99.90
61896;DHT22;47835;52.778;5.956;2023-09-19T08:27:55;15.40;99.90
61896;DHT22;47835;52.778;5.956;2023-09-19T08:30:24;15.50;99.90
61896;DHT22;47835;52.778;5.956;2023-09-19T08:32:57;15.50;99.90
61896;DHT22;47835;52.778;5.956;2023-09-19T08:35:24;15.60;99.90
61896;DHT22;47835;52.778;5.956;2023-09-19T08:37:49;15.60;99.90
61896;DHT22;47835;52.778;5.956;2023-09-19T08:40:17;15.60;99.90
61896;DHT22;47835;52.778;5.956;2023-09-19T08:42:54;15.70;99.90
61896;DHT22;47835;52.778;5.956;2023-09-19T08:45:21;15.80;99.90
61896;DHT22;47835;52.778;5.956;2023-09-19T08:48:16;16.00;99.90
61896;DHT22;47835;52.778;5.956;2023-09-19T08:50:55;16.10;99.90
61896;DHT22;47835;52.778;5.956;2023-09-19T08:53:30;16.20;99.90
61896;DHT22;47835;52.778;5.956;2023-09-19T08:55:59;16.30;99.90
61896;DHT22;47835;52.778;5.956;2023-09-19T08:58:34;16.50;99.90
61896;DHT22;47835;52.778;5.956;2023-09-19T09:01:01;16.60;99.90
61896;DHT22;47835;52.778;5.956;2023-09-19T09:03:32;16.60;99.90
61896;DHT22;47835;52.778;5.956;2023-09-19T09:05:59;16.60;99.90
61896;DHT22;47835;52.778;5.956;2023-09-19T09:08:25;16.60;99.90
61896;DHT22;47835;52.778;5.956;2023-09-19T09:10:51;16.60;99.90
61896;DHT22;47835;52.778;5.956;2023-09-19T09:13:18;16.60;99.90
61896;DHT22;47835;52.778;5.956;2023-09-19T09:15:43;16.80;99.90
61896;DHT22;47835;52.778;5.956;2023-09-19T09:18:10;16.90;99.90
61896;DHT22;47835;52.778;5.956;2023-09-19T09:20:36;17.00;99.90
61896;DHT22;47835;52.778;5.956;2023-09-19T09:23:01;17.00;99.90
61896;DHT22;47835;52.778;5.956;2023-09-19T09:25:54;17.00;99.90
61896;DHT22;47835;52.778;5.956;2023-09-19T09:28:30;16.90;99.90
61896;DHT22;47835;52.778;5.956;2023-09-19T09:30:57;16.90;99.90
61896;DHT22;47835;52.778;5.956;2023-09-19T09:33:34;16.90;99.90
61896;DHT22;47835;52.778;5.956;2023-09-19T09:36:03;16.90;99.90
61896;DHT22;47835;52.778;5.956;2023-09-19T09:38:43;16.90;99.90
61896;DHT22;47835;52.778;5.956;2023-09-19T09:41:15;16.90;99.90
61896;DHT22;47835;52.778;5.956;2023-09-19T09:43:53;17.00;99.90
61896;DHT22;47835;52.778;5.956;2023-09-19T09:46:22;17.10;99.90
61896;DHT22;47835;52.778;5.956;2023-09-19T09:51:58;17.10;99.90
61896;DHT22;47835;52.778;5.956;2023-09-19T09:54:31;17.30;99.90
61896;DHT22;47835;52.778;5.956;2023-09-19T09:57:13;17.30;99.90
61896;DHT22;47835;52.778;5.956;2023-09-19T10:00:00;17.40;99.90
61896;DHT22;47835;52.778;5.956;2023-09-19T10:02:44;17.50;99.90
61896;DHT22;47835;52.778;5.956;2023-09-19T10:05:17;17.50;99.90
61896;DHT22;47835;52.778;5.956;2023-09-19T10:07:58;17.40;99.90
61896;DHT22;47835;52.778;5.956;2023-09-19T10:10:52;17.20;99.90
61896;DHT22;47835;52.778;5.956;2023-09-19T10:13:33;17.00;99.90
61896;DHT22;47835;52.778;5.956;2023-09-19T10:16:09;17.10;99.90
61896;DHT22;47835;52.778;5.956;2023-09-19T10:18:50;17.30;99.90
61896;DHT22;47835;52.778;5.956;2023-09-19T10:21:50;17.50;99.90
61896;DHT22;47835;52.778;5.956;2023-09-19T10:24:29;17.50;99.90
61896;DHT22;47835;52.778;5.956;2023-09-19T10:27:01;17.60;99.90
61896;DHT22;47835;52.778;5.956;2023-09-19T10:29:53;17.80;99.90
61896;DHT22;47835;52.778;5.956;2023-09-19T10:32:40;17.80;99.90
61896;DHT22;47835;52.778;5.956;2023-09-19T10:35:27;17.80;99.90
61896;DHT22;47835;52.778;5.956;2023-09-19T10:38:10;17.90;99.90
61896;DHT22;47835;52.778;5.956;2023-09-19T10:41:06;18.00;99.90
61896;DHT22;47835;52.778;5.956;2023-09-19T10:44:05;18.00;99.90
61896;DHT22;47835;52.778;5.956;2023-09-19T10:50:00;17.60;99.90
61896;DHT22;47835;52.778;5.956;2023-09-19T10:52:30;17.50;99.90
61896;DHT22;47835;52.778;5.956;2023-09-19T10:55:45;17.50;99.90
61896;DHT22;47835;52.778;5.956;2023-09-19T10:59:17;17.60;99.90
61896;DHT22;47835;52.778;5.956;2023-09-19T11:02:22;17.70;99.90
61896;DHT22;47835;52.778;5.956;2023-09-19T11:19:34;18.50;99.90
61896;DHT22;47835;52.778;5.956;2023-09-19T11:30:25;18.00;99.90
61896;DHT22;47835;52.778;5.956;2023-09-19T11:33:29;17.80;99.90
61896;DHT22;47835;52.778;5.956;2023-09-19T11:36:35;17.90;99.90
61896;DHT22;47835;52.778;5.956;2023-09-19T11:39:28;17.90;99.90
61896;DHT22;47835;52.778;5.956;2023-09-19T11:52:32;18.10;99.90
61896;DHT22;47835;52.778;5.956;2023-09-19T12:02:38;18.00;99.90
61896;DHT22;47835;52.778;5.956;2023-09-19T12:05:36;17.90;99.90
61896;DHT22;47835;52.778;5.956;2023-09-19T12:08:22;17.90;99.90
61896;DHT22;47835;52.778;5.956;2023-09-19T12:10:53;18.10;99.90
61896;DHT22;47835;52.778;5.956;2023-09-19T12:13:48;18.30;99.90
61896;DHT22;47835;52.778;5.956;2023-09-19T12:16:54;18.40;99.90
61896;DHT22;47835;52.778;5.956;2023-09-19T12:30:38;18.20;99.90
61896;DHT22;47835;52.778;5.956;2023-09-19T12:34:13;18.20;99.90
61896;DHT22;47835;52.778;5.956;2023-09-19T12:41:16;18.10;99.90
61896;DHT22;47835;52.778;5.956;2023-09-19T12:44:17;18.10;99.90
61896;DHT22;47835;52.778;5.956;2023-09-19T12:47:13;18.20;99.90
61896;DHT22;47835;52.778;5.956;2023-09-19T12:53:45;18.20;99.90
61896;DHT22;47835;52.778;5.956;2023-09-19T12:56:49;18.10;99.90
61896;DHT22;47835;52.778;5.956;2023-09-19T12:59:29;18.00;99.90
61896;DHT22;47835;52.778;5.956;2023-09-19T13:02:05;18.10;99.90
61896;DHT22;47835;52.778;5.956;2023-09-19T13:05:18;18.00;99.90
61896;DHT22;47835;52.778;5.956;2023-09-19T13:08:17;18.00;99.90
61896;DHT22;47835;52.778;5.956;2023-09-19T13:11:39;18.00;99.90
61896;DHT22;47835;52.778;5.956;2023-09-19T13:14:32;18.00;99.90
61896;DHT22;47835;52.778;5.956;2023-09-19T13:18:10;18.00;99.90
61896;DHT22;47835;52.778;5.956;2023-09-19T13:24:37;17.50;99.90
61896;DHT22;47835;52.778;5.956;2023-09-19T13:28:04;17.50;99.90
61896;DHT22;47835;52.778;5.956;2023-09-19T13:31:06;17.50;99.90
61896;DHT22;47835;52.778;5.956;2023-09-19T13:34:12;17.80;99.90
61896;DHT22;47835;52.778;5.956;2023-09-19T13:37:32;18.00;99.90
61896;DHT22;47835;52.778;5.956;2023-09-19T13:40:21;18.30;99.90
61896;DHT22;47835;52.778;5.956;2023-09-19T13:46:30;18.50;99.90
61896;DHT22;47835;52.778;5.956;2023-09-19T13:49:34;18.50;99.90
61896;DHT22;47835;52.778;5.956;2023-09-19T13:52:25;18.50;99.90
61896;DHT22;47835;52.778;5.956;2023-09-19T13:55:55;18.40;99.90
61896;DHT22;47835;52.778;5.956;2023-09-19T13:59:00;18.40;99.90
61896;DHT22;47835;52.778;5.956;2023-09-19T14:01:32;18.30;99.90
61896;DHT22;47835;52.778;5.956;2023-09-19T14:04:08;18.30;99.90
61896;DHT22;47835;52.778;5.956;2023-09-19T14:13:46;18.10;99.90
61896;DHT22;47835;52.778;5.956;2023-09-19T14:16:52;18.10;99.90
61896;DHT22;47835;52.778;5.956;2023-09-19T14:20:10;18.10;99.90
61896;DHT22;47835;52.778;5.956;2023-09-19T14:25:48;18.10;99.90
61896;DHT22;47835;52.778;5.956;2023-09-19T14:28:33;18.10;99.90
61896;DHT22;47835;52.778;5.956;2023-09-19T14:31:30;18.10;99.90
61896;DHT22;47835;52.778;5.956;2023-09-19T14:34:31;18.00;99.90
61896;DHT22;47835;52.778;5.956;2023-09-19T14:37:41;17.90;99.90
61896;DHT22;47835;52.778;5.956;2023-09-19T14:47:55;17.60;99.90
61896;DHT22;47835;52.778;5.956;2023-09-19T14:50:38;17.40;99.90
61896;DHT22;47835;52.778;5.956;2023-09-19T14:53:37;17.30;99.90
61896;DHT22;47835;52.778;5.956;2023-09-19T15:03:59;17.20;99.90
61896;DHT22;47835;52.778;5.956;2023-09-19T15:09:57;17.20;99.90
61896;DHT22;47835;52.778;5.956;2023-09-19T15:13:39;17.10;99.90
61896;DHT22;47835;52.778;5.956;2023-09-19T15:19:19;17.10;99.90
61896;DHT22;47835;52.778;5.956;2023-09-19T15:25:11;17.10;99.90
61896;DHT22;47835;52.778;5.956;2023-09-19T15:28:23;17.10;99.90
61896;DHT22;47835;52.778;5.956;2023-09-19T15:31:10;17.00;99.90
61896;DHT22;47835;52.778;5.956;2023-09-19T15:34:22;16.90;99.90
61896;DHT22;47835;52.778;5.956;2023-09-19T15:37:14;16.90;99.90
61896;DHT22;47835;52.778;5.956;2023-09-19T15:40:31;16.90;99.90
61896;DHT22;47835;52.778;5.956;2023-09-19T15:43:04;16.90;99.90
61896;DHT22;47835;52.778;5.956;2023-09-19T15:45:45;16.90;99.90
61896;DHT22;47835;52.778;5.956;2023-09-19T15:48:36;16.80;99.90
61896;DHT22;47835;52.778;5.956;2023-09-19T15:51:04;16.70;99.90
61896;DHT22;47835;52.778;5.956;2023-09-19T15:53:50;16.50;99.90
61896;DHT22;47835;52.778;5.956;2023-09-19T15:56:51;16.50;99.90
61896;DHT22;47835;52.778;5.956;2023-09-19T15:59:31;16.40;99.90
61896;DHT22;47835;52.778;5.956;2023-09-19T16:01:57;16.40;99.90
61896;DHT22;47835;52.778;5.956;2023-09-19T16:04:55;16.40;99.90
61896;DHT22;47835;52.778;5.956;2023-09-19T16:07:26;16.40;99.90
61896;DHT22;47835;52.778;5.956;2023-09-19T16:09:55;16.30;99.90
61896;DHT22;47835;52.778;5.956;2023-09-19T16:12:24;16.30;99.90
61896;DHT22;47835;52.778;5.956;2023-09-19T16:15:01;16.30;99.90
61896;DHT22;47835;52.778;5.956;2023-09-19T16:17:27;16.30;99.90
61896;DHT22;47835;52.778;5.956;2023-09-19T16:19:55;16.30;99.90
61896;DHT22;47835;52.778;5.956;2023-09-19T16:22:23;16.30;99.90
61896;DHT22;47835;52.778;5.956;2023-09-19T16:24:51;16.30;99.90
61896;DHT22;47835;52.778;5.956;2023-09-19T16:27:17;16.20;99.90
61896;DHT22;47835;52.778;5.956;2023-09-19T16:29:47;16.20;99.90
61896;DHT22;47835;52.778;5.956;2023-09-19T16:32:14;16.20;99.90
61896;DHT22;47835;52.778;5.956;2023-09-19T16:34:40;16.10;99.90
61896;DHT22;47835;52.778;5.956;2023-09-19T16:37:06;16.10;99.90
61896;DHT22;47835;52.778;5.956;2023-09-19T16:39:32;16.10;99.90
61896;DHT22;47835;52.778;5.956;2023-09-19T16:42:05;16.00;99.90
61896;DHT22;47835;52.778;5.956;2023-09-19T16:44:56;16.00;99.90
61896;DHT22;47835;52.778;5.956;2023-09-19T16:47:24;16.00;99.90
61896;DHT22;47835;52.778;5.956;2023-09-19T16:49:49;16.00;99.90
61896;DHT22;47835;52.778;5.956;2023-09-19T16:52:15;16.00;99.90
61896;DHT22;47835;52.778;5.956;2023-09-19T16:54:40;16.00;99.90
61896;DHT22;47835;52.778;5.956;2023-09-19T16:57:06;16.00;99.90
61896;DHT22;47835;52.778;5.956;2023-09-19T16:59:31;16.00;99.90
61896;DHT22;47835;52.778;5.956;2023-09-19T17:01:58;16.00;99.90
61896;DHT22;47835;52.778;5.956;2023-09-19T17:04:24;16.10;99.90
61896;DHT22;47835;52.778;5.956;2023-09-19T17:06:50;16.10;99.90
61896;DHT22;47835;52.778;5.956;2023-09-19T17:09:17;16.10;99.90
61896;DHT22;47835;52.778;5.956;2023-09-19T17:11:44;16.10;99.90
61896;DHT22;47835;52.778;5.956;2023-09-19T17:14:11;16.10;99.90
61896;DHT22;47835;52.778;5.956;2023-09-19T17:16:37;16.10;99.90
61896;DHT22;47835;52.778;5.956;2023-09-19T17:19:02;16.10;99.90
61896;DHT22;47835;52.778;5.956;2023-09-19T17:21:30;16.00;99.90
61896;DHT22;47835;52.778;5.956;2023-09-19T17:23:55;16.00;99.90
61896;DHT22;47835;52.778;5.956;2023-09-19T17:26:24;16.00;99.90
61896;DHT22;47835;52.778;5.956;2023-09-19T17:28:50;16.00;99.90
61896;DHT22;47835;52.778;5.956;2023-09-19T17:31:18;15.90;99.90
61896;DHT22;47835;52.778;5.956;2023-09-19T17:33:45;15.90;99.90
61896;DHT22;47835;52.778;5.956;2023-09-19T17:36:15;15.90;99.90
61896;DHT22;47835;52.778;5.956;2023-09-19T17:38:45;16.00;99.90
61896;DHT22;47835;52.778;5.956;2023-09-19T17:41:11;15.90;99.90
61896;DHT22;47835;52.778;5.956;2023-09-19T17:43:41;15.90;99.90
61896;DHT22;47835;52.778;5.956;2023-09-19T17:46:14;15.90;99.90
61896;DHT22;47835;52.778;5.956;2023-09-19T17:48:44;15.90;99.90
61896;DHT22;47835;52.778;5.956;2023-09-19T17:51:11;15.90;99.90
61896;DHT22;47835;52.778;5.956;2023-09-19T17:53:39;15.90;99.90
61896;DHT22;47835;52.778;5.956;2023-09-19T17:56:05;15.90;99.90
61896;DHT22;47835;52.778;5.956;2023-09-19T17:58:34;15.90;99.90
61896;DHT22;47835;52.778;5.956;2023-09-19T18:01:10;15.90;99.90
61896;DHT22;47835;52.778;5.956;2023-09-19T18:03:37;15.90;99.90
61896;DHT22;47835;52.778;5.956;2023-09-19T18:06:05;15.90;99.90
61896;DHT22;47835;52.778;5.956;2023-09-19T18:08:31;15.90;99.90
61896;DHT22;47835;52.778;5.956;2023-09-19T18:10:57;15.90;99.90
61896;DHT22;47835;52.778;5.956;2023-09-19T18:13:23;15.90;99.90
61896;DHT22;47835;52.778;5.956;2023-09-19T18:15:48;15.90;99.90